createdAt,value
2022-09-21T00:00:27.114Z,93.83
2022-09-21T00:01:27.263Z,94.18
2022-09-21T00:02:27.181Z,94.04
2022-09-21T00:03:27.107Z,94.08
2022-09-21T00:04:27.128Z,93.98
2022-09-21T00:05:27.097Z,93.98
2022-09-21T00:06:27.097Z,93.98
2022-09-21T00:07:27.091Z,93.87
2022-09-21T00:08:27.094Z,94.08
2022-09-21T00:09:27.088Z,94.18
2022-09-21T00:10:27.084Z,94.70
2022-09-21T00:11:27.093Z,95.01
2022-09-21T00:12:27.098Z,95.31
2022-09-21T00:13:27.075Z,95.68
2022-09-21T00:14:27.077Z,95.37
2022-09-21T00:15:27.069Z,95.78
2022-09-21T00:16:27.142Z,96.15
2022-09-21T00:17:27.069Z,96.15
2022-09-21T00:18:27.060Z,96.25
2022-09-21T00:19:27.057Z,96.20
2022-09-21T00:20:27.085Z,95.53
2022-09-21T00:21:27.056Z,93.99
2022-09-21T00:22:27.049Z,93.99
2022-09-21T00:23:27.047Z,93.85
2022-09-21T00:24:27.045Z,93.68
2022-09-21T00:25:27.039Z,92.60
2022-09-21T00:26:27.045Z,91.88
2022-09-21T00:27:27.036Z,92.60
2022-09-21T00:28:27.039Z,91.88
2022-09-21T00:29:27.046Z,93.12
2022-09-21T00:30:27.030Z,94.14
2022-09-21T00:31:27.128Z,93.93
2022-09-21T00:32:27.025Z,94.04
2022-09-21T00:33:27.020Z,93.93
2022-09-21T00:34:27.017Z,93.98
2022-09-21T00:35:27.019Z,94.49
2022-09-21T00:36:27.039Z,95.17
2022-09-21T00:37:27.007Z,95.57
2022-09-21T00:38:27.008Z,95.89
2022-09-21T00:39:27.000Z,95.37
2022-09-21T00:40:27.071Z,95.78
2022-09-21T00:41:27.066Z,95.57
2022-09-21T00:42:26.992Z,95.68
2022-09-21T00:43:26.994Z,95.06
2022-09-21T00:44:26.987Z,94.61
2022-09-21T00:45:27.043Z,94.61
2022-09-21T00:46:26.983Z,95.12
2022-09-21T00:47:26.980Z,94.71
2022-09-21T00:48:26.978Z,94.51
2022-09-21T00:49:26.975Z,94.30
2022-09-21T00:50:26.969Z,94.40
2022-09-21T00:51:26.972Z,94.30
2022-09-21T00:52:26.984Z,94.56
2022-09-21T00:53:26.963Z,94.67
2022-09-21T00:54:26.959Z,94.56
2022-09-21T00:55:26.960Z,94.87
2022-09-21T00:56:26.952Z,94.62
2022-09-21T00:57:26.952Z,94.62
2022-09-21T00:58:26.947Z,94.32
2022-09-21T00:59:30.302Z,94.05
2022-09-21T01:00:26.942Z,91.80
2022-09-21T01:01:27.039Z,90.97
2022-09-21T01:02:27.055Z,90.50
2022-09-21T01:03:26.932Z,89.99
2022-09-21T01:04:26.932Z,90.85
2022-09-21T01:05:26.931Z,90.75
2022-09-21T01:06:26.922Z,91.47
2022-09-21T01:07:26.921Z,92.40
2022-09-21T01:08:26.951Z,92.70
2022-09-21T01:09:26.919Z,93.21
2022-09-21T01:10:26.912Z,93.01
2022-09-21T01:11:26.911Z,92.64
2022-09-21T01:12:26.908Z,92.33
2022-09-21T01:13:26.903Z,92.44
2022-09-21T01:14:26.900Z,92.85
2022-09-21T01:15:26.899Z,92.27
2022-09-21T01:16:26.935Z,91.76
2022-09-21T01:17:26.899Z,92.17
2022-09-21T01:18:26.888Z,91.91
2022-09-21T01:19:26.887Z,91.76
2022-09-21T01:20:26.883Z,91.29
2022-09-21T01:21:26.884Z,91.08
2022-09-21T01:22:26.874Z,91.70
2022-09-21T01:23:26.876Z,92.11
2022-09-21T01:24:26.890Z,91.80
2022-09-21T01:25:26.868Z,92.83
2022-09-21T01:26:26.864Z,93.76
2022-09-21T01:27:26.868Z,94.27
2022-09-21T01:28:26.860Z,94.07
2022-09-21T01:29:26.861Z,94.43
2022-09-21T01:30:26.853Z,95.05
2022-09-21T01:31:26.945Z,95.77
2022-09-21T01:32:26.845Z,95.62
2022-09-21T01:33:26.848Z,95.42
2022-09-21T01:34:26.854Z,94.90
2022-09-21T01:35:26.838Z,93.87
2022-09-21T01:36:26.835Z,93.67
2022-09-21T01:37:26.835Z,92.85
2022-09-21T01:38:26.832Z,92.64
2022-09-21T01:39:26.833Z,92.79
2022-09-21T01:40:26.888Z,92.48
2022-09-21T01:41:26.820Z,92.58
2022-09-21T01:42:26.814Z,92.58
2022-09-21T01:43:26.813Z,92.58
2022-09-21T01:44:26.811Z,92.79
2022-09-21T01:45:26.849Z,92.52
2022-09-21T01:46:26.803Z,91.80
2022-09-21T01:47:26.807Z,92.73
2022-09-21T01:48:26.798Z,92.93
2022-09-21T01:49:26.798Z,93.35
2022-09-21T01:50:26.791Z,94.23
2022-09-21T01:51:26.792Z,94.02
2022-09-21T01:52:26.783Z,93.82
2022-09-21T01:53:26.782Z,94.43
2022-09-21T01:54:26.778Z,94.54
2022-09-21T01:55:26.779Z,93.82
2022-09-21T01:56:26.792Z,93.61
2022-09-21T01:57:26.770Z,92.58
2022-09-21T01:58:26.764Z,92.58
2022-09-21T01:59:26.763Z,92.58
2022-09-21T02:00:26.765Z,92.99
2022-09-21T02:01:26.764Z,93.44
2022-09-21T02:02:26.752Z,93.82
2022-09-21T02:03:26.751Z,94.27
2022-09-21T02:04:26.746Z,94.43
2022-09-21T02:05:26.743Z,94.54
2022-09-21T02:06:26.741Z,95.25
2022-09-21T02:07:26.739Z,95.67
2022-09-21T02:08:26.732Z,95.83
2022-09-21T02:09:26.733Z,95.62
2022-09-21T02:10:26.726Z,94.95
2022-09-21T02:11:26.724Z,94.80
2022-09-21T02:12:26.739Z,94.90
2022-09-21T02:13:26.721Z,94.49
2022-09-21T02:14:26.715Z,94.29
2022-09-21T02:15:26.714Z,94.59
2022-09-21T02:16:26.740Z,94.59
2022-09-21T02:17:26.711Z,94.65
2022-09-21T02:18:26.710Z,94.24
2022-09-21T02:19:26.700Z,94.65
2022-09-21T02:20:26.697Z,94.34
2022-09-21T02:21:26.695Z,93.99
2022-09-21T02:22:26.692Z,94.04
2022-09-21T02:23:26.686Z,93.83
2022-09-21T02:24:26.688Z,94.10
2022-09-21T02:25:26.683Z,93.99
2022-09-21T02:26:26.676Z,93.68
2022-09-21T02:27:26.675Z,93.99
2022-09-21T02:28:26.691Z,94.20
2022-09-21T02:29:26.668Z,94.40
2022-09-21T02:30:26.667Z,94.36
2022-09-21T02:31:26.690Z,94.26
2022-09-21T02:32:26.661Z,93.95
2022-09-21T02:33:26.662Z,93.85
2022-09-21T02:34:26.655Z,92.93
2022-09-21T02:35:26.652Z,92.51
2022-09-21T02:36:26.645Z,92.51
2022-09-21T02:37:26.651Z,92.72
2022-09-21T02:38:26.640Z,92.21
2022-09-21T02:39:26.639Z,91.22
2022-09-21T02:40:26.711Z,90.40
2022-09-21T02:41:26.636Z,89.72
2022-09-21T02:42:26.628Z,89.21
2022-09-21T02:43:26.626Z,89.21
2022-09-21T02:44:26.639Z,89.19
2022-09-21T02:45:26.623Z,89.91
2022-09-21T02:46:26.666Z,90.01
2022-09-21T02:47:26.615Z,91.08
2022-09-21T02:48:26.616Z,92.42
2022-09-21T02:49:26.614Z,92.21
2022-09-21T02:50:26.608Z,92.52
2022-09-21T02:51:26.602Z,91.60
2022-09-21T02:52:26.601Z,91.64
2022-09-21T02:53:26.596Z,92.52
2022-09-21T02:54:26.590Z,92.42
2022-09-21T02:55:26.591Z,92.67
2022-09-21T02:56:26.591Z,92.46
2022-09-21T02:57:26.587Z,92.71
2022-09-21T02:58:26.580Z,93.02
2022-09-21T02:59:26.580Z,93.84
2022-09-21T03:00:26.622Z,94.15
2022-09-21T03:01:26.571Z,94.46
2022-09-21T03:02:26.567Z,94.98
2022-09-21T03:03:26.563Z,95.59
2022-09-21T03:04:26.558Z,95.75
2022-09-21T03:05:26.556Z,95.96
2022-09-21T03:06:26.550Z,96.17
2022-09-21T03:07:26.549Z,95.92
2022-09-21T03:08:26.550Z,95.92
2022-09-21T03:09:26.545Z,95.40
2022-09-21T03:10:26.540Z,95.86
2022-09-21T03:11:26.538Z,95.71
2022-09-21T03:12:26.539Z,94.89
2022-09-21T03:13:26.538Z,94.89
2022-09-21T03:14:26.527Z,94.07
2022-09-21T03:15:26.525Z,93.76
2022-09-21T03:16:26.539Z,93.55
2022-09-21T03:17:26.522Z,92.52
2022-09-21T03:18:26.513Z,92.01
2022-09-21T03:19:26.513Z,92.57
2022-09-21T03:20:26.509Z,92.21
2022-09-21T03:21:26.506Z,92.77
2022-09-21T03:22:26.498Z,92.77
2022-09-21T03:23:26.498Z,93.04
2022-09-21T03:24:26.493Z,92.01
2022-09-21T03:25:26.494Z,92.01
2022-09-21T03:26:26.487Z,91.74
2022-09-21T03:27:26.495Z,91.33
2022-09-21T03:28:26.480Z,91.53
2022-09-21T03:29:26.478Z,91.38
2022-09-21T03:30:26.474Z,92.50
2022-09-21T03:31:26.551Z,92.46
2022-09-21T03:32:26.488Z,91.99
2022-09-21T03:33:26.465Z,92.46
2022-09-21T03:34:26.463Z,92.40
2022-09-21T03:35:26.459Z,91.27
2022-09-21T03:36:26.453Z,90.66
2022-09-21T03:37:26.479Z,91.13
2022-09-21T03:38:26.445Z,90.86
2022-09-21T03:39:26.446Z,90.45
2022-09-21T03:40:26.481Z,89.56
2022-09-21T03:41:26.437Z,89.36
2022-09-21T03:42:26.432Z,89.77
2022-09-21T03:43:26.428Z,90.73
2022-09-21T03:44:26.428Z,90.64
2022-09-21T03:45:26.423Z,90.73
2022-09-21T03:46:26.443Z,91.30
2022-09-21T03:47:26.418Z,92.74
2022-09-21T03:48:26.431Z,92.84
2022-09-21T03:49:26.411Z,93.35
2022-09-21T03:50:26.402Z,94.18
2022-09-21T03:51:26.406Z,93.87
2022-09-21T03:52:26.401Z,93.98
2022-09-21T03:53:26.399Z,93.87
2022-09-21T03:54:26.393Z,94.49
2022-09-21T03:55:26.390Z,94.08
2022-09-21T03:56:26.393Z,94.49
2022-09-21T03:57:26.384Z,94.38
2022-09-21T03:58:26.386Z,94.76
2022-09-21T03:59:26.386Z,94.80
2022-09-21T04:00:26.373Z,94.59
2022-09-21T04:01:26.421Z,94.90
2022-09-21T04:02:26.409Z,95.68
2022-09-21T04:03:26.369Z,95.10
2022-09-21T04:04:26.381Z,94.49
2022-09-21T04:05:26.358Z,94.24
2022-09-21T04:06:26.349Z,93.46
2022-09-21T04:07:26.348Z,92.53
2022-09-21T04:08:26.345Z,92.53
2022-09-21T04:09:26.343Z,93.77
2022-09-21T04:10:26.334Z,94.38
2022-09-21T04:11:26.335Z,94.13
2022-09-21T04:12:26.327Z,94.38
2022-09-21T04:13:26.328Z,94.76
2022-09-21T04:14:26.321Z,94.38
2022-09-21T04:15:26.320Z,93.93
2022-09-21T04:16:26.316Z,93.21
2022-09-21T04:17:26.324Z,93.11
2022-09-21T04:18:26.324Z,92.63
2022-09-21T04:19:26.306Z,92.22
2022-09-21T04:20:26.320Z,90.78
2022-09-21T04:21:26.300Z,90.88
2022-09-21T04:22:26.292Z,91.13
2022-09-21T04:23:26.293Z,91.54
2022-09-21T04:24:26.350Z,91.75
2022-09-21T04:25:26.285Z,91.75
2022-09-21T04:26:26.283Z,92.99
2022-09-21T04:27:26.279Z,92.68
2022-09-21T04:28:26.274Z,91.13
2022-09-21T04:29:26.269Z,90.82
2022-09-21T04:30:26.264Z,90.41
2022-09-21T04:31:26.356Z,90.35
2022-09-21T04:32:26.257Z,91.17
2022-09-21T04:33:26.265Z,91.79
2022-09-21T04:34:26.251Z,91.89
2022-09-21T04:35:26.246Z,92.10
2022-09-21T04:36:26.268Z,93.03
2022-09-21T04:37:26.244Z,92.10
2022-09-21T04:38:26.234Z,92.61
2022-09-21T04:39:26.249Z,94.17
2022-09-21T04:40:26.285Z,94.57
2022-09-21T04:41:26.227Z,94.47
2022-09-21T04:42:26.221Z,94.57
2022-09-21T04:43:26.227Z,94.57
2022-09-21T04:44:26.214Z,94.52
2022-09-21T04:45:26.216Z,94.42
2022-09-21T04:46:26.265Z,94.42
2022-09-21T04:47:26.206Z,94.52
2022-09-21T04:48:26.202Z,94.17
2022-09-21T04:49:26.196Z,94.42
2022-09-21T04:50:26.192Z,94.62
2022-09-21T04:51:26.189Z,93.90
2022-09-21T04:52:26.310Z,94.21
2022-09-21T04:53:26.191Z,93.69
2022-09-21T04:54:26.179Z,93.69
2022-09-21T04:55:26.280Z,94.10
2022-09-21T04:56:26.174Z,93.90
2022-09-21T04:57:26.168Z,94.42
2022-09-21T04:58:26.165Z,94.31
2022-09-21T04:59:26.170Z,94.52
2022-09-21T05:00:26.172Z,94.04
2022-09-21T05:01:26.180Z,93.59
2022-09-21T05:02:26.148Z,94.10
2022-09-21T05:03:26.211Z,94.52
2022-09-21T05:04:26.150Z,94.31
2022-09-21T05:05:26.137Z,95.03
2022-09-21T05:06:26.135Z,94.82
2022-09-21T05:07:26.132Z,95.45
2022-09-21T05:08:26.153Z,94.99
2022-09-21T05:09:26.122Z,95.03
2022-09-21T05:10:26.117Z,94.93
2022-09-21T05:11:26.113Z,94.93
2022-09-21T05:12:26.114Z,94.31
2022-09-21T05:13:26.107Z,94.42
2022-09-21T05:14:26.106Z,94.31
2022-09-21T05:15:26.159Z,94.52
2022-09-21T05:16:26.096Z,94.52
2022-09-21T05:17:26.093Z,94.21
2022-09-21T05:18:26.089Z,94.56
2022-09-21T05:19:26.088Z,94.04
2022-09-21T05:20:26.088Z,94.21
2022-09-21T05:21:26.080Z,94.15
2022-09-21T05:22:26.076Z,94.10
2022-09-21T05:23:26.076Z,94.25
2022-09-21T05:24:26.180Z,94.04
2022-09-21T05:25:26.066Z,94.25
2022-09-21T05:26:26.061Z,94.15
2022-09-21T05:27:26.054Z,94.62
2022-09-21T05:28:26.050Z,94.46
2022-09-21T05:29:26.049Z,94.93
2022-09-21T05:30:26.081Z,94.72
2022-09-21T05:31:26.131Z,94.72
2022-09-21T05:32:26.037Z,94.52
2022-09-21T05:33:26.033Z,94.62
2022-09-21T05:34:26.028Z,94.52
2022-09-21T05:35:26.024Z,94.31
2022-09-21T05:36:26.019Z,94.21
2022-09-21T05:37:26.017Z,94.21
2022-09-21T05:38:26.013Z,94.31
2022-09-21T05:39:26.007Z,94.52
2022-09-21T05:40:26.180Z,94.42
2022-09-21T05:41:26.011Z,94.62
2022-09-21T05:42:26.001Z,95.03
2022-09-21T05:43:25.991Z,95.45
2022-09-21T05:44:25.996Z,96.06
2022-09-21T05:45:25.987Z,96.23
2022-09-21T05:46:26.037Z,96.12
2022-09-21T05:47:25.981Z,96.64
2022-09-21T05:48:25.980Z,96.70
2022-09-21T05:49:25.971Z,96.02
2022-09-21T05:50:25.966Z,96.12
2022-09-21T05:51:25.964Z,96.23
2022-09-21T05:52:25.961Z,95.81
2022-09-21T05:53:25.954Z,95.92
2022-09-21T05:54:25.953Z,95.61
2022-09-21T05:55:25.947Z,95.09
2022-09-21T05:56:25.966Z,95.40
2022-09-21T05:57:30.497Z,95.40
2022-09-21T05:58:25.944Z,95.46
2022-09-21T05:59:25.947Z,95.77
2022-09-21T06:00:25.929Z,95.71
2022-09-21T06:01:25.969Z,96.33
2022-09-21T06:02:25.979Z,96.53
2022-09-21T06:03:25.919Z,96.49
2022-09-21T06:04:25.912Z,97.01
2022-09-21T06:05:25.908Z,97.17
2022-09-21T06:06:25.908Z,97.38
2022-09-21T06:07:25.902Z,97.17
2022-09-21T06:08:25.900Z,96.45
2022-09-21T06:09:25.899Z,96.92
2022-09-21T06:10:25.894Z,97.17
2022-09-21T06:11:25.888Z,97.02
2022-09-21T06:12:25.901Z,97.02
2022-09-21T06:13:25.881Z,96.81
2022-09-21T06:14:25.879Z,97.02
2022-09-21T06:15:25.871Z,97.43
2022-09-21T06:16:25.900Z,97.33
2022-09-21T06:17:25.865Z,97.28
2022-09-21T06:18:25.862Z,97.08
2022-09-21T06:19:25.856Z,97.39
2022-09-21T06:20:25.853Z,97.28
2022-09-21T06:21:25.850Z,97.69
2022-09-21T06:22:25.848Z,97.69
2022-09-21T06:23:25.843Z,97.75
2022-09-21T06:24:25.843Z,97.65
2022-09-21T06:25:25.835Z,97.65
2022-09-21T06:26:25.834Z,97.65
2022-09-21T06:27:25.827Z,97.61
2022-09-21T06:28:25.859Z,97.61
2022-09-21T06:29:25.820Z,97.61
2022-09-21T06:30:25.875Z,97.71
2022-09-21T06:31:25.810Z,97.66
2022-09-21T06:32:25.807Z,97.66
2022-09-21T06:33:25.812Z,97.81
2022-09-21T06:34:25.801Z,97.66
2022-09-21T06:35:25.796Z,97.66
2022-09-21T06:36:25.798Z,98.28
2022-09-21T06:37:25.790Z,97.87
2022-09-21T06:38:25.798Z,97.56
2022-09-21T06:39:25.782Z,97.92
2022-09-21T06:40:25.841Z,98.03
2022-09-21T06:41:25.777Z,98.03
2022-09-21T06:42:25.778Z,98.13
2022-09-21T06:43:25.771Z,98.03
2022-09-21T06:44:25.794Z,97.82
2022-09-21T06:45:25.762Z,97.82
2022-09-21T06:46:25.760Z,97.88
2022-09-21T06:47:25.754Z,97.78
2022-09-21T06:48:25.751Z,97.88
2022-09-21T06:49:25.747Z,97.88
2022-09-21T06:50:25.747Z,97.67
2022-09-21T06:51:25.738Z,97.99
2022-09-21T06:52:25.736Z,97.83
2022-09-21T06:53:25.741Z,98.35
2022-09-21T06:54:25.731Z,98.45
2022-09-21T06:55:25.727Z,98.45
2022-09-21T06:56:25.724Z,98.45
2022-09-21T06:57:25.720Z,98.35
2022-09-21T06:58:25.726Z,98.66
2022-09-21T06:59:25.713Z,98.51
2022-09-21T07:00:25.836Z,98.30
2022-09-21T07:01:25.882Z,98.45
2022-09-21T07:02:25.701Z,98.20
2022-09-21T07:03:25.697Z,97.89
2022-09-21T07:04:25.699Z,97.99
2022-09-21T07:05:25.692Z,97.95
2022-09-21T07:06:25.692Z,97.85
2022-09-21T07:07:25.685Z,98.05
2022-09-21T07:10:25.750Z,98.05
2022-09-21T07:11:25.674Z,97.74
2022-09-21T07:12:25.672Z,98.46
2022-09-21T07:13:25.665Z,98.52
2022-09-21T07:14:25.663Z,99.44
2022-09-21T07:15:25.665Z,99.13
2022-09-21T07:16:25.722Z,98.99
2022-09-21T07:17:25.653Z,98.99
2022-09-21T07:18:25.650Z,98.88
2022-09-21T07:19:25.646Z,98.88
2022-09-21T07:20:25.720Z,98.78
2022-09-21T07:21:25.643Z,98.88
2022-09-21T07:22:25.642Z,98.88
2022-09-21T07:23:25.635Z,99.15
2022-09-21T07:24:25.635Z,98.94
2022-09-21T07:25:25.658Z,99.15
2022-09-21T07:26:25.633Z,99.25
2022-09-21T07:27:25.626Z,99.15
2022-09-21T07:28:25.631Z,99.35
2022-09-21T07:29:25.640Z,99.20
2022-09-21T07:30:25.616Z,99.41
2022-09-21T07:31:25.649Z,98.99
2022-09-21T07:32:25.628Z,99.20
2022-09-21T07:33:25.607Z,99.46
2022-09-21T07:34:25.607Z,99.15
2022-09-21T07:35:25.601Z,99.05
2022-09-21T07:36:25.603Z,98.65
2022-09-21T07:37:25.596Z,98.85
2022-09-21T07:38:25.598Z,99.15
2022-09-21T07:39:25.597Z,98.90
2022-09-21T07:40:25.654Z,98.80
2022-09-21T07:41:25.585Z,98.49
2022-09-21T07:42:25.585Z,98.80
2022-09-21T07:43:25.582Z,98.55
2022-09-21T07:44:25.579Z,98.45
2022-09-21T07:45:25.640Z,98.96
2022-09-21T07:46:25.574Z,98.65
2022-09-21T07:47:25.572Z,97.99
2022-09-21T07:48:25.648Z,98.10
2022-09-21T07:49:25.568Z,98.10
2022-09-21T07:50:25.564Z,98.30
2022-09-21T07:51:25.563Z,98.56
2022-09-21T07:52:25.564Z,98.56
2022-09-21T07:53:25.572Z,98.36
2022-09-21T07:54:25.559Z,97.95
2022-09-21T07:55:25.556Z,97.95
2022-09-21T07:56:25.553Z,97.44
2022-09-21T07:57:25.551Z,97.39
2022-09-21T07:58:25.551Z,97.33
2022-09-21T07:59:25.549Z,98.00
2022-09-21T08:00:25.546Z,98.00
2022-09-21T08:01:25.616Z,97.60
2022-09-21T08:02:25.652Z,97.45
2022-09-21T08:03:25.540Z,97.14
2022-09-21T08:04:25.560Z,96.43
2022-09-21T08:05:25.537Z,95.97
2022-09-21T08:06:25.536Z,95.97
2022-09-21T08:07:25.532Z,95.97
2022-09-21T08:08:25.533Z,96.54
2022-09-21T08:09:25.533Z,96.44
2022-09-21T08:10:25.528Z,95.98
2022-09-21T08:11:25.528Z,95.98
2022-09-21T08:12:25.527Z,95.78
2022-09-21T08:13:25.523Z,94.72
2022-09-21T08:14:26.679Z,93.50
2022-09-21T08:15:47.342Z,93.60
2022-09-21T08:16:25.647Z,93.50
2022-09-21T08:17:25.519Z,93.25
2022-09-21T08:18:25.516Z,93.15
2022-09-21T08:19:25.516Z,91.83
2022-09-21T08:20:25.556Z,91.42
2022-09-21T08:21:25.520Z,90.70
2022-09-21T08:22:25.510Z,91.11
2022-09-21T08:23:25.509Z,91.56
2022-09-21T08:24:25.505Z,91.87
2022-09-21T08:25:25.508Z,91.42
2022-09-21T08:26:25.506Z,92.68
2022-09-21T08:27:25.509Z,93.40
2022-09-21T08:28:25.511Z,93.19
2022-09-21T08:29:25.505Z,93.29
2022-09-21T08:30:25.504Z,93.80
2022-09-21T08:31:25.561Z,93.80
2022-09-21T08:32:49.323Z,93.29
2022-09-21T08:33:29.249Z,93.90
2022-09-21T08:34:25.495Z,94.11
2022-09-21T08:35:25.490Z,93.70
2022-09-21T08:36:25.509Z,94.15
2022-09-21T08:37:25.484Z,94.72
2022-09-21T08:38:25.484Z,94.76
2022-09-21T08:39:25.561Z,94.01
2022-09-21T08:40:25.510Z,93.95
2022-09-21T08:41:25.479Z,93.74
2022-09-21T08:42:25.477Z,94.97
2022-09-21T08:43:25.475Z,94.76
2022-09-21T08:44:25.472Z,95.23
2022-09-21T08:45:25.468Z,94.97
2022-09-21T08:46:25.519Z,95.58
2022-09-21T08:47:25.466Z,94.97
2022-09-21T08:48:29.984Z,95.58
2022-09-21T08:49:25.467Z,95.58
2022-09-21T08:50:25.459Z,95.17
2022-09-21T08:51:25.456Z,95.78
2022-09-21T08:52:25.476Z,94.87
2022-09-21T08:53:25.455Z,95.07
2022-09-21T08:54:25.451Z,93.95
2022-09-21T08:55:25.450Z,93.13
2022-09-21T08:56:33.005Z,92.63
2022-09-21T08:57:25.447Z,93.18
2022-09-21T08:58:25.453Z,93.18
2022-09-21T08:59:25.444Z,93.28
2022-09-21T09:00:25.517Z,93.24
2022-09-21T09:01:25.522Z,92.83
2022-09-21T09:02:25.535Z,92.57
2022-09-21T09:03:25.436Z,92.26
2022-09-21T09:04:25.448Z,91.96
2022-09-21T09:05:25.433Z,92.30
2022-09-21T09:06:26.913Z,92.97
2022-09-21T09:07:25.429Z,93.43
2022-09-21T09:08:25.447Z,93.12
2022-09-21T09:09:25.424Z,93.22
2022-09-21T09:10:25.427Z,93.12
2022-09-21T09:11:25.422Z,93.43
2022-09-21T09:12:25.426Z,93.63
2022-09-21T09:13:25.418Z,93.32
2022-09-21T09:14:25.425Z,93.32
2022-09-21T09:15:25.416Z,93.43
2022-09-21T09:16:25.454Z,93.52
2022-09-21T09:17:25.411Z,93.32
2022-09-21T09:18:25.405Z,93.73
2022-09-21T09:19:25.410Z,93.93
2022-09-21T09:20:25.408Z,94.24
2022-09-21T09:21:31.342Z,94.85
2022-09-21T09:22:25.396Z,94.14
2022-09-21T09:23:25.398Z,93.93
2022-09-21T09:24:25.413Z,93.84
2022-09-21T09:25:25.396Z,93.84
2022-09-21T09:26:25.391Z,94.95
2022-09-21T09:27:25.390Z,94.75
2022-09-21T09:28:25.387Z,95.42
2022-09-21T09:29:25.385Z,95.12
2022-09-21T09:30:25.377Z,95.12
2022-09-21T09:31:25.442Z,94.91
2022-09-21T09:32:25.377Z,94.09
2022-09-21T09:33:25.375Z,94.20
2022-09-21T09:34:25.373Z,93.79
2022-09-21T09:35:25.373Z,93.38
2022-09-21T09:36:46.507Z,93.32
2022-09-21T09:37:25.368Z,93.32
2022-09-21T09:38:25.363Z,93.02
2022-09-21T09:39:25.371Z,93.12
2022-09-21T09:40:25.481Z,92.91
2022-09-21T09:41:25.359Z,93.69
2022-09-21T09:42:25.358Z,94.40
2022-09-21T09:43:25.356Z,94.91
2022-09-21T09:44:25.352Z,95.12
2022-09-21T09:45:26.333Z,94.91
2022-09-21T09:46:25.377Z,95.28
2022-09-21T09:47:25.346Z,95.48
2022-09-21T09:48:25.340Z,95.17
2022-09-21T09:49:25.342Z,95.07
2022-09-21T09:50:25.335Z,95.83
2022-09-21T09:51:25.335Z,95.28
2022-09-21T09:52:25.332Z,95.68
2022-09-21T09:53:25.333Z,95.17
2022-09-21T09:54:25.328Z,94.76
2022-09-21T09:55:25.329Z,93.95
2022-09-21T09:56:25.353Z,93.54
2022-09-21T09:57:25.339Z,93.74
2022-09-21T09:58:25.320Z,94.05
2022-09-21T09:59:25.324Z,93.74
2022-09-21T10:00:25.316Z,93.44
2022-09-21T10:01:25.347Z,93.24
2022-09-21T10:02:25.406Z,93.13
2022-09-21T10:03:25.329Z,93.18
2022-09-21T10:04:25.353Z,92.93
2022-09-21T10:05:25.309Z,93.07
2022-09-21T10:06:25.303Z,93.13
2022-09-21T10:07:25.317Z,92.72
2022-09-21T10:08:25.303Z,91.71
2022-09-21T10:09:25.306Z,91.81
2022-09-21T10:10:25.396Z,92.01
2022-09-21T10:11:25.294Z,90.99
2022-09-21T10:12:25.338Z,91.71
2022-09-21T10:13:25.295Z,91.40
2022-09-21T10:14:25.287Z,91.91
2022-09-21T10:15:25.289Z,91.56
2022-09-21T10:16:25.329Z,92.07
2022-09-21T10:17:25.283Z,92.07
2022-09-21T10:18:25.278Z,92.18
2022-09-21T10:19:25.281Z,91.77
2022-09-21T10:20:25.275Z,91.56
2022-09-21T10:21:25.277Z,89.73
2022-09-21T10:22:25.272Z,90.24
2022-09-21T10:23:25.271Z,90.44
2022-09-21T10:24:25.270Z,90.55
2022-09-21T10:25:25.268Z,90.85
2022-09-21T10:26:25.263Z,91.46
2022-09-21T10:27:25.262Z,91.56
2022-09-21T10:28:25.278Z,91.16
2022-09-21T10:29:25.265Z,91.56
2022-09-21T10:30:25.255Z,91.46
2022-09-21T10:31:25.278Z,91.77
2022-09-21T10:32:25.251Z,91.46
2022-09-21T10:33:25.253Z,91.46
2022-09-21T10:34:25.247Z,91.66
2022-09-21T10:35:25.250Z,91.77
2022-09-21T10:36:25.244Z,90.85
2022-09-21T10:37:25.243Z,90.85
2022-09-21T10:38:25.241Z,91.46
2022-09-21T10:39:25.239Z,91.66
2022-09-21T10:40:25.381Z,90.85
2022-09-21T10:41:25.237Z,91.11
2022-09-21T10:42:25.231Z,89.99
2022-09-21T10:43:25.233Z,88.92
2022-09-21T10:44:25.258Z,88.87
2022-09-21T10:45:25.231Z,88.61
2022-09-21T10:46:25.322Z,87.75
2022-09-21T10:47:25.226Z,87.65
2022-09-21T10:48:25.220Z,87.45
2022-09-21T10:49:25.219Z,87.14
2022-09-21T10:50:25.219Z,87.45
2022-09-21T10:51:25.216Z,87.14
2022-09-21T10:52:25.213Z,87.55
2022-09-21T10:53:25.218Z,87.55
2022-09-21T10:54:25.210Z,86.63
2022-09-21T10:55:25.208Z,85.82
2022-09-21T10:56:25.205Z,86.13
2022-09-21T10:57:25.204Z,86.29
2022-09-21T10:58:25.207Z,86.90
2022-09-21T10:59:25.200Z,84.35
2022-09-21T11:00:25.215Z,84.25
2022-09-21T11:01:25.237Z,85.06
2022-09-21T11:02:25.253Z,86.04
2022-09-21T11:03:25.375Z,86.76
2022-09-21T11:04:25.193Z,85.74
2022-09-21T11:05:25.190Z,84.92
2022-09-21T11:06:25.187Z,84.31
2022-09-21T11:07:25.188Z,83.40
2022-09-21T11:08:25.182Z,84.11
2022-09-21T11:09:25.181Z,84.01
2022-09-21T11:10:25.177Z,85.03
2022-09-21T11:11:25.177Z,84.92
2022-09-21T11:12:25.174Z,83.09
2022-09-21T11:13:25.241Z,82.68
2022-09-21T11:14:25.182Z,83.20
2022-09-21T11:15:25.231Z,84.11
2022-09-21T11:16:25.187Z,82.28
2022-09-21T11:17:25.168Z,84.31
2022-09-21T11:18:25.167Z,84.92
2022-09-21T11:19:25.162Z,83.60
2022-09-21T11:20:25.161Z,84.07
2022-09-21T11:21:25.158Z,83.67
2022-09-21T11:22:25.154Z,85.23
2022-09-21T11:23:25.155Z,85.33
2022-09-21T11:24:25.152Z,85.39
2022-09-21T11:25:25.156Z,86.04
2022-09-21T11:26:25.152Z,83.60
2022-09-21T11:27:25.148Z,83.20
2022-09-21T11:28:25.145Z,83.67
2022-09-21T11:30:25.158Z,84.28
2022-09-21T11:31:25.200Z,85.09
2022-09-21T11:32:25.233Z,85.03
2022-09-21T11:33:25.145Z,84.62
2022-09-21T11:34:25.133Z,84.42
2022-09-21T11:35:25.137Z,84.07
2022-09-21T11:36:25.131Z,85.13
2022-09-21T11:37:25.131Z,85.49
2022-09-21T11:38:25.125Z,86.04
2022-09-21T11:39:25.128Z,86.76
2022-09-21T11:40:25.202Z,87.06
2022-09-21T11:41:25.122Z,86.45
2022-09-21T11:42:25.120Z,87.47
2022-09-21T11:43:25.120Z,87.87
2022-09-21T11:44:25.115Z,87.87
2022-09-21T11:45:25.119Z,87.87
2022-09-21T11:46:25.159Z,87.67
2022-09-21T11:47:25.113Z,87.67
2022-09-21T11:48:25.126Z,88.12
2022-09-21T11:49:25.108Z,87.98
2022-09-21T11:50:32.405Z,87.98
2022-09-21T11:51:25.107Z,88.39
2022-09-21T11:52:25.103Z,87.77
2022-09-21T11:53:25.100Z,87.77
2022-09-21T11:54:25.099Z,87.77
2022-09-21T11:55:25.105Z,88.69
2022-09-21T11:56:25.097Z,89.14
2022-09-21T11:57:25.096Z,88.42
2022-09-21T11:58:25.092Z,88.28
2022-09-21T11:59:25.094Z,88.08
2022-09-21T12:00:25.093Z,86.65
2022-09-21T12:01:25.093Z,85.84
2022-09-21T12:02:25.369Z,83.81
2022-09-21T12:03:25.086Z,81.63
2022-09-21T12:04:25.104Z,81.63
2022-09-21T12:05:25.085Z,82.34
2022-09-21T12:06:25.080Z,82.04
2022-09-21T12:07:25.079Z,83.01
2022-09-21T12:08:25.075Z,83.83
2022-09-21T12:09:25.079Z,84.54
2022-09-21T12:10:25.074Z,84.64
2022-09-21T12:11:25.074Z,85.46
2022-09-21T12:12:25.069Z,85.76
2022-09-21T12:13:25.081Z,85.76
2022-09-21T12:14:25.150Z,85.96
2022-09-21T12:15:25.064Z,84.48
2022-09-21T12:16:25.099Z,82.61
2022-09-21T12:17:25.065Z,83.12
2022-09-21T12:18:25.060Z,80.88
2022-09-21T12:19:25.061Z,80.33
2022-09-21T12:20:25.073Z,80.03
2022-09-21T12:21:25.054Z,79.32
2022-09-21T12:22:25.051Z,77.80
2022-09-21T12:23:25.073Z,78.71
2022-09-21T12:24:28.542Z,78.10
2022-09-21T12:25:25.049Z,78.51
2022-09-21T12:26:25.044Z,79.42
2022-09-21T12:27:25.073Z,80.54
2022-09-21T12:28:25.042Z,81.05
2022-09-21T12:29:25.046Z,81.35
2022-09-21T12:30:25.079Z,77.80
2022-09-21T12:31:25.037Z,76.37
2022-09-21T12:32:25.039Z,77.29
2022-09-21T12:33:25.033Z,76.68
2022-09-21T12:34:25.038Z,77.90
2022-09-21T12:35:25.039Z,77.49
2022-09-21T12:36:25.052Z,75.97
2022-09-21T12:37:25.036Z,75.76
2022-09-21T12:38:25.053Z,75.87
2022-09-21T12:39:25.025Z,76.28
2022-09-21T12:40:25.133Z,77.70
2022-09-21T12:41:25.024Z,78.78
2022-09-21T12:42:25.021Z,79.08
2022-09-21T12:43:25.018Z,79.38
2022-09-21T12:44:25.015Z,79.38
2022-09-21T12:45:25.016Z,79.42
2022-09-21T12:46:25.055Z,78.30
2022-09-21T12:47:25.020Z,78.78
2022-09-21T12:48:25.011Z,79.63
2022-09-21T12:49:25.010Z,77.15
2022-09-21T12:50:25.009Z,75.83
2022-09-21T12:51:25.008Z,77.05
2022-09-21T12:52:25.025Z,77.97
2022-09-21T12:53:25.029Z,78.27
2022-09-21T12:54:25.002Z,77.72
2022-09-21T12:55:25.005Z,76.91